Aeroporto :
LOGIN :

Iscrizione | Disclaimer

   EN    FR    IT 

 










Sommario :    VFR   VFR Marginale   IFR   IFR Intensivo   IFR Molto Intensivo
Visibilità : 
Base nubi : 
>= 8 km
>= 3000ft
5 / 8 km
1000 / 3000 ft
1500m / 5 km
500 / 1000 ft
800 / 1500m
200 / 500 ft
< 800m
< 200 ft
Simboli :   Temporali  Nebbia  Neve Forte  Precipitazioni Forti  Vento > 20 kt
SIGMETs :   Varie  Temporali  Ghiacco  Turbolenza  Onda orograficha  Ceneri Vulcaniche







- Altitudine del aeroporto : 529 ft
- Codice IATA : CHR
- Carte del aeroporto


LFLX - Chateauroux

ULTIMO METAR :
  • 170700Z AUTO 26011KT 9999 OVC011 19/16 Q1019 TEMPO SCT025

METARs OBSOLETI :
  • 170630Z AUTO 27010KT 9999 OVC011 18/16 Q1019 TEMPO SCT025
  • 170600Z AUTO 26010KT 9999 OVC011 18/16 Q1019 TEMPO BKN009
  • 170530Z AUTO 26011KT 9999 OVC009 18/16 Q1019 NOSIG
  • 170500Z AUTO 26012KT 9999 OVC008 17/16 Q1018 TEMPO BKN012
  • 170430Z AUTO 25011KT 9999 OVC009 18/16 Q1018 TEMPO BKN012

TAF TAF LFLX
Valido dal 17 a 06 ore il 18 a 12 ore UTC


170500Z 1706/1812 26010KT CAVOK
TEMPO 1706/1708 BKN009
TEMPO 1708/1711 SCT025
TEMPO 1711/1714 24012G22KT
BECMG 1719/1721 32005KT
BECMG 1722/1724 VRB03KT
Nessun NOTAM noto per questo aeroporto.



MetMap, La meteo Aeronautica in un colpo d'occhio ! - Copyright ORBIFLY Dicembre 2007 - Disclaimer

ORBIFLY MET'MAP TEAM :

Programmazione e sviluppo : Alexandra Zaïnal
Concezione e sviluppo : Baudouin d'Aumeries
Co-Programmazione e sviluppo : Marc-Olivier Méhu
Supporto tecnico e logistico : Manuel Goepfert
Aiuto per la traduzione : Arnaldo La Scala

Contatto : metmap@orbifly.com




FONTI E CREDITI :

   NOAA